Time;durP1;ratioP1;P1;durP2;ratioP2;P2;SDS_P1;SDS_P2;PMS_P1;PMS_P2;Temp;Humidity;BMP_temperature;BMP_pressure;BME280_temperature;BME280_humidity;BME280_pressure;Samples;Min_cycle;Max_cycle;Signal;HPM_P1;HPM_P2
2023/07/21 00:00:15;;;;;;;3.85;2.05;;;;;;;20.22;49.80;101173.13;5135928;27;20039;-71
2023/07/21 00:02:43;;;;;;;2.63;1.83;;;;;;;20.24;49.89;101179.09;5142035;27;20049;-71
2023/07/21 00:05:11;;;;;;;2.67;1.88;;;;;;;20.22;49.97;101178.56;5140276;27;20104;-71
2023/07/21 00:07:39;;;;;;;5.47;2.00;;;;;;;20.22;49.74;101178.56;5139360;27;20108;-71
2023/07/21 00:10:10;;;;;;;2.28;1.70;;;;;;;20.19;49.78;101171.75;5140692;27;20076;-71
2023/07/21 00:12:40;;;;;;;2.75;1.77;;;;;;;20.18;49.71;101177.50;5143159;27;20047;-72
2023/07/21 00:15:10;;;;;;;4.38;2.25;;;;;;;20.19;49.88;101176.41;5142883;27;20062;-72
2023/07/21 00:17:38;;;;;;;3.78;2.15;;;;;;;20.18;49.94;101177.50;5144328;27;20122;-72
2023/07/21 00:20:12;;;;;;;2.67;1.80;;;;;;;20.16;49.89;101175.03;5143211;27;20096;-72
2023/07/21 00:22:39;;;;;;;2.25;1.80;;;;;;;20.14;49.96;101174.50;5141465;27;20058;-72
2023/07/21 00:25:10;;;;;;;4.72;2.05;;;;;;;20.12;49.88;101174.78;5142843;27;20064;-71
2023/07/21 00:27:39;;;;;;;3.20;2.55;;;;;;;20.12;50.00;101176.69;5144106;27;20110;-71
2023/07/21 00:30:08;;;;;;;3.55;2.30;;;;;;;20.08;50.24;101167.41;5141230;27;20046;-71
2023/07/21 00:32:36;;;;;;;3.17;2.33;;;;;;;20.10;50.18;101173.41;5140976;27;20047;-71
2023/07/21 00:35:05;;;;;;;4.03;1.90;;;;;;;20.09;50.04;101171.78;5140947;27;20480;-71
2023/07/21 00:37:33;;;;;;;4.00;2.30;;;;;;;20.07;50.00;101168.50;5140799;27;20155;-72
2023/07/21 00:40:03;;;;;;;3.20;2.30;;;;;;;20.05;50.12;101160.59;5140545;27;20051;-71
2023/07/21 00:42:33;;;;;;;4.28;2.30;;;;;;;20.06;50.03;101166.88;5141148;27;20080;-71
2023/07/21 00:45:00;;;;;;;2.85;2.20;;;;;;;20.04;50.12;101163.63;5138810;28;20042;-72
2023/07/21 00:47:30;;;;;;;3.83;2.20;;;;;;;20.01;50.46;101159.53;5141614;28;20047;-72
2023/07/21 00:49:58;;;;;;;4.00;2.28;;;;;;;20.01;50.28;101156.81;5142607;28;20043;-71
2023/07/21 00:52:27;;;;;;;3.13;2.22;;;;;;;20.00;50.26;101155.16;5139124;28;20092;-71
2023/07/21 00:54:55;;;;;;;4.60;2.03;;;;;;;19.99;50.21;101158.97;5138676;28;20058;-71
2023/07/21 00:57:23;;;;;;;3.63;2.53;;;;;;;19.98;50.33;101156.53;5138804;28;20047;-71
2023/07/21 00:59:52;;;;;;;5.65;2.15;;;;;;;19.95;50.42;101155.19;5141303;28;20051;-71
2023/07/21 01:02:21;;;;;;;3.63;2.30;;;;;;;19.95;50.35;101146.19;5142044;27;20043;-72
2023/07/21 01:04:49;;;;;;;3.28;2.33;;;;;;;19.88;50.29;101132.00;5139966;28;20082;-71
2023/07/21 01:07:18;;;;;;;4.45;1.90;;;;;;;19.93;50.30;101138.25;5137079;28;20099;-71
2023/07/21 01:09:46;;;;;;;3.22;2.13;;;;;;;19.91;50.46;101136.91;5140528;28;20047;-71
2023/07/21 01:12:14;;;;;;;3.40;1.95;;;;;;;19.90;50.52;101138.00;5138061;28;20051;-71
2023/07/21 01:14:42;;;;;;;4.07;2.40;;;;;;;19.88;50.39;101132.81;5141349;28;20055;-71
2023/07/21 01:17:14;;;;;;;4.80;2.20;;;;;;;19.87;50.54;101130.38;5139126;28;20100;-71
2023/07/21 01:19:48;;;;;;;3.38;1.98;;;;;;;19.85;50.51;101133.38;5140808;28;20047;-71
2023/07/21 01:22:22;;;;;;;4.72;2.83;;;;;;;19.84;50.75;101134.47;5138563;28;20569;-72
2023/07/21 01:25:07;;;;;;;4.22;2.38;;;;;;;19.81;50.49;101130.38;5138357;28;20100;-71
2023/07/21 01:27:39;;;;;;;4.15;2.38;;;;;;;19.81;50.65;101124.13;5137729;28;20107;-71
2023/07/21 01:30:10;;;;;;;4.20;2.15;;;;;;;19.79;50.50;101118.13;5136575;28;20102;-71
2023/07/21 01:32:41;;;;;;;4.82;2.55;;;;;;;19.76;50.70;101113.22;5136971;28;20247;-71
2023/07/21 01:35:12;;;;;;;4.07;2.10;;;;;;;19.75;50.85;101112.41;5138874;27;20688;-71
2023/07/21 01:37:42;;;;;;;4.00;2.50;;;;;;;19.74;50.79;101112.69;5138277;28;20043;-70
2023/07/21 01:40:15;;;;;;;4.78;2.42;;;;;;;19.72;50.66;101110.22;5140625;27;20043;-71
2023/07/21 01:42:47;;;;;;;3.67;2.42;;;;;;;19.72;50.75;101106.69;5139493;28;20039;-71
2023/07/21 01:45:15;;;;;;;3.33;2.15;;;;;;;19.69;50.70;101110.78;5136752;28;20047;-72
2023/07/21 01:47:45;;;;;;;3.75;2.67;;;;;;;19.68;50.80;101105.59;5139011;28;20142;-71
2023/07/21 01:50:17;;;;;;;3.42;2.20;;;;;;;19.68;50.90;101111.06;5141353;27;20085;-71
2023/07/21 01:52:47;;;;;;;3.78;2.65;;;;;;;19.66;50.86;101102.34;5141264;27;20039;-71
2023/07/21 01:55:22;;;;;;;4.95;2.50;;;;;;;19.65;50.89;101106.16;5144154;27;20096;-72
2023/07/21 01:57:55;;;;;;;3.37;2.37;;;;;;;19.64;51.03;101105.34;5139389;27;20047;-71
2023/07/21 02:00:25;;;;;;;2.53;2.05;;;;;;;19.61;50.98;101105.88;5139054;27;20414;-71
2023/07/21 02:02:54;;;;;;;3.40;2.17;;;;;;;19.60;50.93;101101.53;5147377;27;20041;-71
2023/07/21 02:05:24;;;;;;;3.92;2.67;;;;;;;19.59;50.96;101096.34;5144528;27;20185;-71
2023/07/21 02:07:52;;;;;;;3.92;2.47;;;;;;;19.58;50.99;101095.53;5137856;27;20051;-70
2023/07/21 02:10:21;;;;;;;4.47;2.50;;;;;;;19.56;51.01;101096.91;5137870;27;20047;-71
2023/07/21 02:12:49;;;;;;;7.15;2.47;;;;;;;19.55;50.80;101095.25;5142238;27;20058;-71
2023/07/21 02:15:17;;;;;;;5.00;2.10;;;;;;;19.55;50.94;101095.25;5142952;27;20050;-71
2023/07/21 02:17:45;;;;;;;4.03;3.03;;;;;;;19.52;50.79;101096.63;5144098;27;20050;-71
2023/07/21 02:20:14;;;;;;;3.15;2.10;;;;;;;19.52;50.87;101096.63;5140009;27;20047;-72
2023/07/21 02:22:43;;;;;;;2.78;2.20;;;;;;;19.50;50.94;101096.88;5143719;27;20096;-71
2023/07/21 02:25:12;;;;;;;4.45;2.53;;;;;;;19.49;50.87;101092.50;5141549;27;20039;-71
2023/07/21 02:27:42;;;;;;;3.83;2.30;;;;;;;19.49;51.01;101087.06;5140974;27;20111;-70
2023/07/21 02:30:10;;;;;;;4.97;2.92;;;;;;;19.48;50.88;101095.50;5142979;27;20131;-71
2023/07/21 02:32:39;;;;;;;3.30;2.40;;;;;;;19.48;51.10;101092.78;5142340;27;20050;-71
2023/07/21 02:35:08;;;;;;;4.40;2.47;;;;;;;19.46;50.95;101090.34;5137999;27;20053;-71
2023/07/21 02:37:36;;;;;;;4.82;2.60;;;;;;;19.46;50.92;101087.59;5145336;27;20071;-72
2023/07/21 02:40:06;;;;;;;3.28;2.55;;;;;;;19.44;50.73;101086.25;5137822;27;20059;-71
2023/07/21 02:42:35;;;;;;;3.70;2.45;;;;;;;19.42;50.89;101086.53;5142408;27;20769;-71
2023/07/21 02:45:05;;;;;;;5.18;2.78;;;;;;;19.36;50.93;101076.72;5145156;27;20039;-71
2023/07/21 02:47:33;;;;;;;3.70;2.38;;;;;;;19.41;50.96;101090.34;5141239;27;20051;-71
2023/07/21 02:50:01;;;;;;;3.25;2.10;;;;;;;19.38;50.99;101080.00;5142552;27;20106;-72
2023/07/21 02:52:29;;;;;;;3.60;2.80;;;;;;;19.39;50.98;101078.91;5141228;27;20048;-71
2023/07/21 02:54:57;;;;;;;4.72;2.40;;;;;;;19.38;51.10;101080.00;5145223;27;20404;-71
2023/07/21 02:57:25;;;;;;;7.63;2.65;;;;;;;19.36;51.11;101079.44;5144029;27;20066;-71
2023/07/21 02:59:54;;;;;;;2.78;2.30;;;;;;;19.35;50.87;101079.72;5143120;27;20051;-71
2023/07/21 03:02:23;;;;;;;5.18;2.38;;;;;;;19.33;50.97;101082.72;5144024;27;20043;-71
2023/07/21 03:04:51;;;;;;;3.67;2.25;;;;;;;19.32;51.12;101081.09;5145502;27;20069;-71
2023/07/21 03:07:19;;;;;;;3.08;2.05;;;;;;;19.32;51.04;101069.38;5138546;27;20055;-71
2023/07/21 03:09:47;;;;;;;3.63;2.50;;;;;;;19.30;51.20;101077.81;5145408;27;20479;-71
2023/07/21 03:12:14;;;;;;;4.07;2.38;;;;;;;19.29;51.11;101078.09;5139359;27;20065;-71
2023/07/21 03:14:42;;;;;;;3.08;2.17;;;;;;;19.26;51.18;101079.47;5145321;27;20050;-70
2023/07/21 03:17:13;;;;;;;3.63;2.22;;;;;;;19.25;51.32;101075.09;5144857;27;20043;-70
2023/07/21 03:19:42;;;;;;;2.75;2.05;;;;;;;19.24;51.29;101072.66;5140630;27;20058;-72
2023/07/21 03:22:09;;;;;;;5.15;2.08;;;;;;;19.21;51.27;101071.28;5141444;27;20200;-71
2023/07/21 03:24:39;;;;;;;5.00;2.40;;;;;;;19.19;51.39;101068.03;5140752;27;20043;-70
2023/07/21 03:27:07;;;;;;;2.90;2.10;;;;;;;19.19;51.33;101076.19;5142642;27;20130;-71
2023/07/21 03:29:35;;;;;;;5.97;2.90;;;;;;;19.18;51.33;101069.94;5139961;27;20452;-71
2023/07/21 03:32:03;;;;;;;5.22;2.80;;;;;;;19.15;51.44;101078.66;5140364;27;20051;-72
2023/07/21 03:34:30;;;;;;;5.10;2.90;;;;;;;19.14;51.48;101077.00;5137380;27;20043;-71
2023/07/21 03:37:01;;;;;;;5.07;2.30;;;;;;;19.13;51.45;101075.38;5141688;27;20047;-71
2023/07/21 03:39:31;;;;;;;6.32;2.65;;;;;;;19.12;51.40;101075.66;5139020;27;20054;-71
2023/07/21 03:41:59;;;;;;;5.70;2.60;;;;;;;19.11;51.35;101076.75;5138908;27;20069;-71
2023/07/21 03:44:26;;;;;;;4.28;2.90;;;;;;;19.09;51.36;101082.47;5144099;27;20131;-71
2023/07/21 03:46:54;;;;;;;4.72;2.15;;;;;;;19.07;51.77;101079.19;5144081;27;21348;-71
2023/07/21 03:49:22;;;;;;;3.70;2.50;;;;;;;19.06;51.50;101072.16;4785940;27;10000155;-71
2023/07/21 03:51:50;;;;;;;4.60;2.53;;;;;;;19.04;51.44;101079.78;5139917;27;20043;-71
2023/07/21 03:54:19;;;;;;;4.18;2.70;;;;;;;19.03;51.40;101071.88;5143118;27;20051;-71
2023/07/21 03:56:47;;;;;;;5.18;2.95;;;;;;;19.02;51.46;101070.25;5140454;27;20088;-72
2023/07/21 03:59:15;;;;;;;3.20;2.28;;;;;;;19.01;51.47;101071.31;5144517;27;20047;-71
2023/07/21 04:01:42;;;;;;;3.03;2.50;;;;;;;19.00;51.45;101075.13;5145581;27;20073;-71
2023/07/21 04:04:10;;;;;;;4.60;2.78;;;;;;;18.98;51.57;101060.97;5138473;27;20488;-71
2023/07/21 04:06:38;;;;;;;5.85;2.70;;;;;;;18.97;51.49;101070.22;5142667;27;20463;-71
2023/07/21 04:09:06;;;;;;;4.85;2.85;;;;;;;18.95;51.65;101062.34;5140584;27;20051;-71
2023/07/21 04:11:35;;;;;;;6.72;2.30;;;;;;;18.85;51.68;101049.53;5139811;27;20042;-72
2023/07/21 04:14:03;;;;;;;3.90;2.53;;;;;;;18.93;51.63;101061.78;5137252;27;20035;-71
2023/07/21 04:16:31;;;;;;;4.78;2.65;;;;;;;18.92;51.62;101059.34;5142600;27;20150;-70
2023/07/21 04:18:59;;;;;;;3.88;2.40;;;;;;;18.90;51.68;101069.69;5141495;27;20043;-71
2023/07/21 04:21:27;;;;;;;4.32;2.42;;;;;;;18.90;51.59;101061.53;5141182;27;20062;-71
2023/07/21 04:23:54;;;;;;;4.47;2.47;;;;;;;18.89;51.76;101052.53;5141360;27;20040;-72
2023/07/21 04:26:22;;;;;;;3.60;2.38;;;;;;;18.88;51.71;101048.19;5137865;27;20042;-71
2023/07/21 04:28:52;;;;;;;4.05;2.67;;;;;;;18.88;51.67;101044.63;5136364;27;20115;-72
2023/07/21 04:31:22;;;;;;;2.78;2.20;;;;;;;18.87;51.82;101049.25;5136051;27;20047;-72
2023/07/21 04:33:50;;;;;;;4.45;2.38;;;;;;;18.85;51.56;101046.81;5136342;27;20547;-71
2023/07/21 04:36:17;;;;;;;6.38;2.40;;;;;;;18.85;51.66;101051.44;5140601;27;20055;-72
2023/07/21 04:38:45;;;;;;;3.90;2.45;;;;;;;18.83;51.66;101057.16;5139780;27;20043;-75
2023/07/21 04:41:13;;;;;;;3.80;2.40;;;;;;;18.83;51.56;101051.72;5139937;27;20046;-75
2023/07/21 04:43:41;;;;;;;4.20;2.78;;;;;;;18.75;51.67;101038.63;5138567;27;20486;-74
2023/07/21 04:46:10;;;;;;;4.57;2.45;;;;;;;18.82;51.79;101049.25;5134140;27;20047;-75
2023/07/21 04:48:38;;;;;;;5.25;2.85;;;;;;;18.81;51.81;101053.06;5139737;27;20065;-72
2023/07/21 04:51:06;;;;;;;4.07;2.72;;;;;;;18.81;51.89;101056.63;5138844;27;20343;-76
2023/07/21 04:53:33;;;;;;;4.45;2.70;;;;;;;18.79;51.89;101050.63;5139330;28;20042;-71
2023/07/21 04:56:01;;;;;;;5.30;3.40;;;;;;;18.78;52.08;101038.09;5137903;27;20043;-74
2023/07/21 04:58:29;;;;;;;6.38;2.90;;;;;;;18.78;52.06;101048.16;5137893;27;20054;-79
2023/07/21 05:00:57;;;;;;;5.80;3.50;;;;;;;18.78;52.06;101042.72;5137628;27;20523;-78
2023/07/21 05:03:26;;;;;;;3.35;2.35;;;;;;;18.77;52.15;101041.91;5137883;28;20048;-78
2023/07/21 05:05:54;;;;;;;4.22;2.42;;;;;;;18.75;51.94;101041.34;5132745;28;20046;-78
2023/07/21 05:08:22;;;;;;;4.47;3.42;;;;;;;18.74;52.45;101045.16;5136465;28;20054;-72
2023/07/21 05:10:50;;;;;;;5.60;3.08;;;;;;;18.75;52.22;101035.09;5139466;28;20043;-72
2023/07/21 05:13:17;;;;;;;4.00;3.13;;;;;;;18.76;52.32;101042.19;5139189;28;20426;-71
2023/07/21 05:15:45;;;;;;;5.03;3.15;;;;;;;18.74;52.30;101030.75;5140054;27;20154;-78
2023/07/21 05:18:13;;;;;;;7.22;3.38;;;;;;;18.74;52.35;101036.19;5136258;27;20127;-67
2023/07/21 05:20:42;;;;;;;3.00;2.20;;;;;;;18.75;52.24;101029.66;5137818;28;20065;-72
2023/07/21 05:23:11;;;;;;;5.40;2.97;;;;;;;18.76;52.22;101026.66;5141883;27;20077;-73
2023/07/21 05:25:39;;;;;;;4.60;2.53;;;;;;;18.77;52.38;101022.84;5138833;27;20058;-73
2023/07/21 05:28:08;;;;;;;5.45;2.70;;;;;;;18.78;51.99;101021.75;5137712;27;20115;-74
2023/07/21 05:30:35;;;;;;;3.08;2.33;;;;;;;18.81;52.28;101025.84;5141351;27;20047;-71
2023/07/21 05:33:03;;;;;;;6.25;2.90;;;;;;;18.80;52.26;101030.47;5144164;27;20047;-73
2023/07/21 05:35:31;;;;;;;3.03;2.20;;;;;;;18.82;52.18;101033.75;5142425;27;20047;-77
2023/07/21 05:38:00;;;;;;;3.28;2.40;;;;;;;18.84;52.32;101037.00;5158252;27;20055;-75
2023/07/21 05:40:28;;;;;;;3.20;2.10;;;;;;;18.85;52.21;101035.09;5145830;27;20042;-75
2023/07/21 05:42:56;;;;;;;3.63;2.28;;;;;;;18.86;52.19;101042.19;5145541;27;20043;-73
2023/07/21 05:45:23;;;;;;;6.50;2.45;;;;;;;18.87;52.49;101045.72;5142878;27;20058;-74
2023/07/21 05:47:51;;;;;;;4.75;2.83;;;;;;;18.87;52.37;101043.00;5151274;27;20128;-73
2023/07/21 05:50:19;;;;;;;3.63;2.15;;;;;;;18.87;52.48;101049.25;5144641;27;20042;-73
2023/07/21 05:52:50;;;;;;;3.45;2.40;;;;;;;18.89;52.37;101049.81;5146372;27;20051;-75
2023/07/21 05:55:19;;;;;;;4.82;2.47;;;;;;;18.88;52.64;101050.06;5147579;27;20043;-76
2023/07/21 05:57:47;;;;;;;4.25;2.70;;;;;;;18.90;52.49;101056.06;5140881;27;20051;-73
2023/07/21 06:00:15;;;;;;;4.47;2.65;;;;;;;18.91;52.48;101053.06;5142810;27;20055;-69
2023/07/21 06:02:44;;;;;;;3.67;2.70;;;;;;;18.91;52.37;101050.34;5143487;27;20043;-69
2023/07/21 06:05:12;;;;;;;4.25;2.83;;;;;;;18.90;52.42;101047.91;5133010;27;20092;-71
2023/07/21 06:07:44;;;;;;;6.72;2.45;;;;;;;18.90;52.35;101048.72;5136110;27;20088;-74
2023/07/21 06:10:12;;;;;;;6.57;2.95;;;;;;;18.91;52.54;101050.34;5139114;27;20392;-73
2023/07/21 06:12:41;;;;;;;4.05;2.85;;;;;;;18.92;52.60;101043.81;5141266;27;20058;-71
2023/07/21 06:15:10;;;;;;;4.60;3.13;;;;;;;18.92;52.65;101046.53;5140139;27;20031;-71
2023/07/21 06:17:39;;;;;;;5.68;3.10;;;;;;;18.92;52.64;101045.72;5143138;27;20071;-71
2023/07/21 06:20:09;;;;;;;6.18;3.88;;;;;;;18.85;52.80;101026.94;5147412;27;20074;-71
2023/07/21 06:22:40;;;;;;;7.80;3.50;;;;;;;18.88;52.96;101031.84;5142769;27;20353;-70
2023/07/21 06:25:09;;;;;;;6.65;4.10;;;;;;;18.97;53.00;101040.28;5146832;27;20096;-71
2023/07/21 06:27:39;;;;;;;7.00;3.65;;;;;;;18.99;53.30;101044.34;5145237;27;20052;-71
2023/07/21 06:30:09;;;;;;;5.07;3.65;;;;;;;19.01;53.12;101038.63;5144969;27;20044;-71
2023/07/21 06:32:37;;;;;;;7.00;3.72;;;;;;;19.03;53.19;101039.19;5140580;27;20126;-72
2023/07/21 06:35:05;;;;;;;5.10;3.40;;;;;;;19.04;53.17;101038.91;5149556;27;20043;-72
2023/07/21 06:37:33;;;;;;;7.32;3.88;;;;;;;19.06;53.23;101039.44;5139090;27;20043;-71
2023/07/21 06:40:01;;;;;;;4.80;3.15;;;;;;;19.08;53.11;101036.41;5143293;27;20488;-72
2023/07/21 06:42:29;;;;;;;4.63;3.55;;;;;;;19.09;53.16;101038.88;5144560;27;20050;-69
2023/07/21 06:44:57;;;;;;;5.68;3.55;;;;;;;19.10;53.39;101035.06;5141845;27;21396;-72
2023/07/21 06:47:26;;;;;;;5.40;3.70;;;;;;;19.11;53.36;101031.25;5137874;27;20588;-75
2023/07/21 06:49:54;;;;;;;7.53;4.25;;;;;;;19.12;53.48;101035.59;5145947;27;20043;-72
2023/07/21 06:52:22;;;;;;;5.55;3.42;;;;;;;19.14;53.36;101030.69;5142241;27;20050;-71
2023/07/21 06:54:50;;;;;;;4.63;2.85;;;;;;;19.15;53.58;101035.06;5137609;27;20098;-72
2023/07/21 06:57:18;;;;;;;5.75;3.40;;;;;;;19.17;53.60;101032.88;5140559;27;20183;-72
2023/07/21 06:59:46;;;;;;;7.00;3.33;;;;;;;19.17;53.36;101035.59;5140799;27;20103;-72
2023/07/21 07:02:14;;;;;;;6.95;3.65;;;;;;;19.19;53.56;101029.88;5142256;27;20055;-73
2023/07/21 07:04:44;;;;;;;6.50;3.53;;;;;;;19.21;53.62;101029.59;5132172;27;20055;-74
2023/07/21 07:07:11;;;;;;;7.47;3.58;;;;;;;19.21;53.57;101027.69;5133945;27;20050;-74
2023/07/21 07:09:39;;;;;;;4.03;2.92;;;;;;;19.23;53.63;101028.22;5139469;27;20050;-74
2023/07/21 07:12:09;;;;;;;4.85;3.60;;;;;;;19.26;53.80;101024.16;5136659;27;20055;-72
2023/07/21 07:14:39;;;;;;;4.15;3.13;;;;;;;19.30;54.41;101027.94;5140490;27;20226;-70
2023/07/21 07:17:08;;;;;;;3.63;2.55;;;;;;;19.31;53.58;101027.69;5139886;27;20047;-74
2023/07/21 07:19:36;;;;;;;9.15;3.10;;;;;;;19.32;53.68;101021.13;5139686;27;20070;-73
2023/07/21 07:22:08;;;;;;;4.38;3.03;;;;;;;19.33;53.74;101019.22;5138292;27;20054;-72
2023/07/21 07:24:36;;;;;;;6.93;3.55;;;;;;;19.34;54.11;101024.41;5149239;27;20066;-71
2023/07/21 07:27:04;;;;;;;9.70;3.30;;;;;;;19.38;54.00;101016.50;5151977;27;20062;-72
2023/07/21 07:29:32;;;;;;;4.75;3.08;;;;;;;19.39;53.90;101024.38;5145617;27;20159;-72
2023/07/21 07:32:00;;;;;;;4.40;3.13;;;;;;;19.40;53.75;101022.47;5150686;27;20067;-72
2023/07/21 07:34:29;;;;;;;7.00;3.40;;;;;;;19.40;53.57;101017.84;5145739;27;20575;-72
2023/07/21 07:36:58;;;;;;;4.78;3.63;;;;;;;19.42;53.69;101020.28;5146933;27;20047;-73
2023/07/21 07:39:27;;;;;;;5.40;3.10;;;;;;;19.41;53.80;101018.66;5141195;27;20541;-72
2023/07/21 07:41:55;;;;;;;10.15;4.60;;;;;;;19.42;53.69;101023.84;5141462;27;20476;-68
2023/07/21 07:44:23;;;;;;;11.52;4.07;;;;;;;19.45;53.98;101028.72;5142748;27;20051;-71
2023/07/21 07:46:51;;;;;;;6.20;4.40;;;;;;;19.46;53.91;101019.47;5142982;27;20047;-67
2023/07/21 07:49:19;;;;;;;6.93;4.43;;;;;;;19.47;53.82;101026.56;5141721;27;20070;-70
2023/07/21 07:51:48;;;;;;;7.43;4.40;;;;;;;19.49;53.91;101029.81;5143556;27;20673;-69
2023/07/21 07:54:16;;;;;;;6.38;3.70;;;;;;;19.50;53.91;101026.00;5139352;27;20066;-71
2023/07/21 07:56:47;;;;;;;5.30;3.70;;;;;;;19.42;53.63;101015.66;5142934;27;20111;-72
2023/07/21 07:59:15;;;;;;;5.47;4.00;;;;;;;19.53;53.75;101032.03;5140840;27;20047;-71
2023/07/21 08:01:43;;;;;;;7.57;4.30;;;;;;;19.53;53.76;101037.47;5142556;27;20043;-70
2023/07/21 08:04:11;;;;;;;5.65;3.13;;;;;;;19.53;53.78;101040.19;5141686;27;20070;-71
2023/07/21 08:06:40;;;;;;;5.57;3.60;;;;;;;19.54;53.62;101028.19;5138299;27;20059;-71
2023/07/21 08:09:09;;;;;;;6.25;3.60;;;;;;;19.55;53.56;101027.09;5132508;27;20161;-72
2023/07/21 08:11:38;;;;;;;4.57;3.30;;;;;;;19.55;53.65;101024.38;5144017;27;20536;-71
2023/07/21 08:14:07;;;;;;;6.25;2.90;;;;;;;19.56;53.46;101032.28;5145595;27;20047;-72
2023/07/21 08:16:38;;;;;;;5.85;3.08;;;;;;;19.57;53.46;101028.47;5144792;27;20043;-71
2023/07/21 08:19:06;;;;;;;3.70;2.72;;;;;;;19.50;53.59;101015.09;5144903;27;20054;-71
2023/07/21 08:21:34;;;;;;;4.15;2.85;;;;;;;19.58;53.48;101032.81;5142277;27;20047;-70
2023/07/21 08:24:02;;;;;;;4.00;2.60;;;;;;;19.59;53.33;101031.72;5142567;27;20055;-71
2023/07/21 08:26:30;;;;;;;5.63;2.60;;;;;;;19.60;53.27;101029.81;5146074;27;20143;-71
2023/07/21 08:28:58;;;;;;;4.75;2.67;;;;;;;19.60;53.31;101017.00;5135633;27;20107;-71
2023/07/21 08:31:27;;;;;;;5.18;3.20;;;;;;;19.62;53.31;101028.44;5143099;27;20042;-70
2023/07/21 08:33:55;;;;;;;6.45;2.83;;;;;;;19.64;53.32;101026.25;5141254;27;20058;-70
2023/07/21 08:36:23;;;;;;;5.15;3.10;;;;;;;19.66;53.20;101028.72;5132395;27;20047;-70
2023/07/21 08:39:03;;;;;;;6.30;3.17;;;;;;;19.66;53.17;101013.16;5143136;27;20045;-70
2023/07/21 08:41:35;;;;;;;6.35;3.17;;;;;;;19.70;53.23;101016.16;5144260;27;20137;-70
2023/07/21 08:44:05;;;;;;;6.35;3.45;;;;;;;19.70;53.41;101021.59;5134256;27;20101;-70
2023/07/21 08:46:34;;;;;;;6.43;2.85;;;;;;;19.72;53.33;101028.41;5143083;27;20050;-70
2023/07/21 08:49:03;;;;;;;6.43;3.35;;;;;;;19.74;53.36;101017.22;5144069;27;20055;-71
2023/07/21 08:51:31;;;;;;;5.05;3.85;;;;;;;19.75;53.35;101019.66;5143441;27;20096;-71
2023/07/21 08:53:58;;;;;;;6.40;3.25;;;;;;;19.76;53.33;101015.84;5144786;27;20076;-71
2023/07/21 08:56:26;;;;;;;4.50;3.03;;;;;;;19.79;53.00;101017.19;5134950;28;20066;-70
2023/07/21 08:58:54;;;;;;;4.53;2.97;;;;;;;19.82;52.92;101024.81;5143010;28;20047;-70
2023/07/21 09:01:22;;;;;;;5.15;3.05;;;;;;;19.82;53.03;101019.38;5145024;27;20099;-71
2023/07/21 09:03:51;;;;;;;5.85;3.20;;;;;;;19.84;52.67;101022.63;5143623;27;20043;-71
2023/07/21 09:06:20;;;;;;;5.60;3.45;;;;;;;19.85;52.78;101018.00;5135728;27;20043;-70
2023/07/21 09:08:48;;;;;;;7.03;3.40;;;;;;;19.87;52.81;101015.81;5146923;27;20051;-71
2023/07/21 09:11:16;;;;;;;7.25;3.67;;;;;;;19.88;52.69;101020.16;5139868;27;20044;-71
2023/07/21 09:13:52;;;;;;;6.68;4.30;;;;;;;19.88;52.57;101014.72;5143618;27;20047;-70
2023/07/21 09:16:20;;;;;;;8.40;5.40;;;;;;;19.89;52.51;101014.44;5148613;27;20042;-70
2023/07/21 09:18:52;;;;;;;6.97;4.38;;;;;;;19.90;52.58;101020.72;5136467;27;20058;-70
2023/07/21 09:21:25;;;;;;;5.68;4.18;;;;;;;19.81;52.72;101012.28;5146668;27;20069;-70
2023/07/21 09:24:02;;;;;;;5.10;3.80;;;;;;;19.93;52.99;101029.16;5147669;27;20070;-69
2023/07/21 09:26:30;;;;;;;9.23;3.63;;;;;;;19.92;52.59;101024.78;5148341;27;20134;-70
2023/07/21 09:28:59;;;;;;;7.38;4.32;;;;;;;19.87;52.53;101004.91;5148398;27;20053;-70
2023/07/21 09:31:28;;;;;;;7.60;4.53;;;;;;;19.94;53.02;101014.41;5144838;27;20392;-71
2023/07/21 09:34:06;;;;;;;5.95;4.20;;;;;;;19.97;52.98;101022.03;5146176;27;20047;-70
2023/07/21 09:36:34;;;;;;;5.18;3.85;;;;;;;19.91;52.86;100998.59;5144612;27;20319;-69
2023/07/21 09:39:04;;;;;;;5.93;3.70;;;;;;;20.00;53.04;101007.00;5147254;27;20047;-71
2023/07/21 09:41:33;;;;;;;5.32;3.65;;;;;;;20.02;53.04;101004.81;5146277;27;20053;-71
2023/07/21 09:44:01;;;;;;;5.82;3.83;;;;;;;20.05;53.28;100993.34;5147642;27;20051;-71
2023/07/21 09:46:30;;;;;;;7.18;3.17;;;;;;;20.08;53.23;100999.06;5141971;27;20047;-70
2023/07/21 09:49:00;;;;;;;5.97;3.38;;;;;;;20.11;52.74;100992.22;5146790;27;20047;-71
2023/07/21 09:51:29;;;;;;;5.18;3.63;;;;;;;20.05;52.65;100991.44;5147908;27;20047;-70
2023/07/21 09:53:59;;;;;;;5.72;4.13;;;;;;;20.14;52.87;100995.19;5129556;27;20122;-70
2023/07/21 09:56:29;;;;;;;6.03;3.55;;;;;;;20.18;52.82;100995.47;5146941;27;20111;-70
2023/07/21 09:59:01;;;;;;;4.55;3.42;;;;;;;20.20;52.83;100987.81;5147176;27;20051;-72
2023/07/21 10:01:30;;;;;;;6.20;4.10;;;;;;;20.24;52.94;100994.31;5147155;27;20096;-70
2023/07/21 10:04:00;;;;;;;4.03;2.92;;;;;;;20.25;52.39;100987.78;5138993;27;20054;-69
2023/07/21 10:06:32;;;;;;;5.32;2.83;;;;;;;20.28;52.39;100989.13;5144705;27;20039;-71
2023/07/21 10:09:03;;;;;;;5.47;3.53;;;;;;;20.28;52.44;100983.66;5141284;27;20047;-71
2023/07/21 10:11:31;;;;;;;5.95;3.72;;;;;;;20.29;52.20;100996.22;5144288;27;20050;-70
2023/07/21 10:13:59;;;;;;;5.32;4.00;;;;;;;20.29;52.32;100994.28;5147188;27;20115;-71
2023/07/21 10:16:30;;;;;;;4.93;3.30;;;;;;;20.31;52.11;100994.00;5147393;27;20569;-70
2023/07/21 10:19:07;;;;;;;5.70;3.35;;;;;;;20.33;52.19;100995.38;5144765;27;20499;-71
2023/07/21 10:21:49;;;;;;;6.30;3.17;;;;;;;20.34;51.99;100991.53;5141074;27;20050;-70
2023/07/21 10:24:23;;;;;;;3.60;2.92;;;;;;;20.34;51.75;100998.91;5146122;27;20057;-71
2023/07/21 10:26:55;;;;;;;5.07;3.30;;;;;;;20.31;51.85;100992.09;5144330;27;20096;-71
2023/07/21 10:29:23;;;;;;;5.43;3.22;;;;;;;20.34;51.52;100994.25;5145522;27;20464;-71
2023/07/21 10:31:52;;;;;;;4.85;3.05;;;;;;;20.34;51.65;101004.38;5144836;27;20047;-71
2023/07/21 10:34:25;;;;;;;6.65;3.08;;;;;;;20.36;51.61;101002.16;5145600;27;20047;-71
2023/07/21 10:36:58;;;;;;;6.05;3.45;;;;;;;20.37;51.69;101009.25;5145965;27;20039;-71
2023/07/21 10:39:28;;;;;;;5.30;3.20;;;;;;;20.38;51.44;101006.28;5145180;27;20449;-71
2023/07/21 10:41:57;;;;;;;4.70;3.15;;;;;;;20.38;51.45;101022.66;5140115;27;20058;-70
2023/07/21 10:44:33;;;;;;;5.95;3.50;;;;;;;20.40;51.55;101017.72;5144689;27;20084;-71
2023/07/21 10:47:00;;;;;;;4.38;3.47;;;;;;;20.40;51.94;101020.47;5140420;27;20067;-71
2023/07/21 10:49:30;;;;;;;4.20;2.80;;;;;;;20.41;51.55;101024.00;5143205;27;20545;-70
2023/07/21 10:51:58;;;;;;;5.40;3.00;;;;;;;20.41;51.76;101033.00;5146818;27;20065;-70
2023/07/21 10:54:25;;;;;;;4.95;2.88;;;;;;;20.42;51.87;101033.81;5146885;27;20074;-70
2023/07/21 10:56:53;;;;;;;3.95;2.58;;;;;;;20.43;51.84;101030.81;5142701;27;20047;-70
2023/07/21 10:59:21;;;;;;;7.13;2.60;;;;;;;20.42;51.71;101028.38;5145951;27;20043;-70
2023/07/21 11:01:51;;;;;;;4.50;2.58;;;;;;;20.43;51.81;101030.81;5144078;27;20066;-70
2023/07/21 11:04:20;;;;;;;3.28;2.15;;;;;;;20.44;51.54;101026.97;5139922;27;20051;-71
2023/07/21 11:06:51;;;;;;;4.63;2.10;;;;;;;20.43;51.71;101035.47;5143780;27;20054;-71
2023/07/21 11:09:21;;;;;;;3.13;2.10;;;;;;;20.45;51.09;101036.00;5142904;27;20055;-71
2023/07/21 11:11:50;;;;;;;3.10;2.10;;;;;;;20.44;51.05;101043.38;5140788;27;20095;-71
2023/07/21 11:14:20;;;;;;;4.45;1.98;;;;;;;20.42;51.07;101045.56;5146392;27;20047;-71
2023/07/21 11:16:51;;;;;;;2.97;2.03;;;;;;;20.42;50.96;101052.94;5144907;27;20104;-71
2023/07/21 11:19:19;;;;;;;5.70;1.67;;;;;;;20.41;51.29;101052.13;5144780;27;20050;-71
2023/07/21 11:21:47;;;;;;;2.30;1.67;;;;;;;20.41;51.14;101051.31;5138018;27;20047;-71
2023/07/21 11:24:22;;;;;;;3.50;1.65;;;;;;;20.41;51.11;101064.97;5145554;27;20058;-71
2023/07/21 11:26:50;;;;;;;3.67;2.10;;;;;;;20.37;51.16;101055.66;5145787;27;20043;-71
2023/07/21 11:29:18;;;;;;;4.32;2.03;;;;;;;20.40;51.56;101066.06;5143835;27;20039;-70
2023/07/21 11:31:46;;;;;;;2.60;2.00;;;;;;;20.40;51.82;101066.88;5145077;27;20073;-69